createdAt,value
2022-08-27T00:00:29.080Z,1007.41
2022-08-27T00:01:29.114Z,1007.40
2022-08-27T00:02:29.214Z,1007.47
2022-08-27T00:03:29.191Z,1007.49
2022-08-27T00:04:29.340Z,1007.51
2022-08-27T00:05:29.265Z,1007.53
2022-08-27T00:06:29.308Z,1007.53
2022-08-27T00:07:29.342Z,1007.54
2022-08-27T00:08:29.389Z,1007.55
2022-08-27T00:09:29.418Z,1007.53
2022-08-27T00:10:29.457Z,1007.53
2022-08-27T00:11:29.498Z,1007.50
2022-08-27T00:12:29.532Z,1007.52
2022-08-27T00:13:29.568Z,1007.44
2022-08-27T00:14:29.610Z,1007.44
2022-08-27T00:15:29.648Z,1007.40
2022-08-27T00:16:29.717Z,1007.38
2022-08-27T00:17:29.723Z,1007.38
2022-08-27T00:18:29.765Z,1007.34
2022-08-27T00:19:29.797Z,1007.34
2022-08-27T00:20:29.836Z,1007.30
2022-08-27T00:21:29.873Z,1007.30
2022-08-27T00:22:29.914Z,1007.27
2022-08-27T00:23:29.955Z,1007.30
2022-08-27T00:24:29.992Z,1007.29
2022-08-27T00:25:30.029Z,1007.27
2022-08-27T00:26:30.064Z,1007.25
2022-08-27T00:27:30.100Z,1007.24
2022-08-27T00:28:30.140Z,1007.21
2022-08-27T00:29:30.179Z,1007.19
2022-08-27T00:30:30.223Z,1007.19
2022-08-27T00:31:30.294Z,1007.15
2022-08-27T00:32:30.292Z,1007.14
2022-08-27T00:33:30.333Z,1007.11
2022-08-27T00:34:30.370Z,1007.08
2022-08-27T00:35:30.404Z,1007.08
2022-08-27T00:36:30.450Z,1007.10
2022-08-27T00:37:30.483Z,1007.05
2022-08-27T00:38:30.520Z,1007.04
2022-08-27T00:39:30.557Z,1007.06
2022-08-27T00:40:30.704Z,1007.04
2022-08-27T00:41:30.632Z,1007.06
2022-08-27T00:42:31.168Z,1007.03
2022-08-27T00:43:30.711Z,1007.03
2022-08-27T00:44:30.749Z,1007.02
2022-08-27T00:45:30.835Z,1007.01
2022-08-27T00:46:30.823Z,1007.03
2022-08-27T00:47:30.861Z,1007.02
2022-08-27T00:48:30.899Z,1007.04
2022-08-27T00:49:30.936Z,1007.04
2022-08-27T00:50:30.976Z,1007.05
2022-08-27T00:51:31.012Z,1007.11
2022-08-27T00:52:31.051Z,1007.10
2022-08-27T00:53:31.088Z,1007.08
2022-08-27T00:54:31.128Z,1007.07
2022-08-27T00:55:31.165Z,1007.04
2022-08-27T00:56:31.207Z,1007.04
2022-08-27T00:57:31.240Z,1007.05
2022-08-27T00:58:31.285Z,1007.02
2022-08-27T00:59:31.317Z,1007.04
2022-08-27T01:00:31.358Z,1007.07
2022-08-27T01:01:31.439Z,1007.07
2022-08-27T01:02:31.478Z,1007.08
2022-08-27T01:03:31.470Z,1007.06
2022-08-27T01:04:31.506Z,1007.06
2022-08-27T01:05:31.544Z,1007.08
2022-08-27T01:06:31.587Z,1007.08
2022-08-27T01:07:31.621Z,1007.06
2022-08-27T01:08:31.663Z,1007.03
2022-08-27T01:09:31.696Z,1007.07
2022-08-27T01:10:31.735Z,1007.07
2022-08-27T01:11:31.775Z,1007.07
2022-08-27T01:12:31.812Z,1007.07
2022-08-27T01:13:58.939Z,1007.10
2022-08-27T01:14:31.887Z,1007.10
2022-08-27T01:15:31.925Z,1007.12
2022-08-27T01:16:31.998Z,1007.10
2022-08-27T01:17:32.007Z,1007.12
2022-08-27T01:18:32.044Z,1007.12
2022-08-27T01:19:32.079Z,1007.09
2022-08-27T01:20:32.116Z,1007.12
2022-08-27T01:21:32.164Z,1007.11
2022-08-27T01:22:32.193Z,1007.16
2022-08-27T01:23:32.232Z,1007.14
2022-08-27T01:24:32.268Z,1007.12
2022-08-27T01:25:32.307Z,1007.15
2022-08-27T01:26:32.345Z,1007.15
2022-08-27T01:27:32.386Z,1007.17
2022-08-27T01:28:37.650Z,1007.14
2022-08-27T01:29:32.460Z,1007.15
2022-08-27T01:30:32.499Z,1007.16
2022-08-27T01:31:32.562Z,1007.16
2022-08-27T01:32:32.577Z,1007.17
2022-08-27T01:33:32.611Z,1007.15
2022-08-27T01:34:32.652Z,1007.18
2022-08-27T01:35:32.689Z,1007.16
2022-08-27T01:36:32.724Z,1007.14
2022-08-27T01:37:32.765Z,1007.16
2022-08-27T01:38:32.800Z,1007.17
2022-08-27T01:39:32.846Z,1007.16
2022-08-27T01:40:32.933Z,1007.15
2022-08-27T01:41:32.916Z,1007.15
2022-08-27T01:42:32.957Z,1007.09
2022-08-27T01:43:33.007Z,1007.13
2022-08-27T01:44:33.029Z,1007.06
2022-08-27T01:45:33.068Z,1007.08
2022-08-27T01:46:33.149Z,1007.09
2022-08-27T01:47:33.145Z,1007.11
2022-08-27T01:48:33.182Z,1007.12
2022-08-27T01:49:33.225Z,1007.15
2022-08-27T01:50:33.256Z,1007.21
2022-08-27T01:51:33.298Z,1007.19
2022-08-27T01:52:33.333Z,1007.24
2022-08-27T01:53:33.374Z,1007.23
2022-08-27T01:54:33.410Z,1007.25
2022-08-27T01:55:33.448Z,1007.24
2022-08-27T01:56:33.485Z,1007.22
2022-08-27T01:57:33.523Z,1007.21
2022-08-27T01:58:33.562Z,1007.22
2022-08-27T01:59:39.077Z,1007.22
2022-08-27T02:00:33.686Z,1007.17
2022-08-27T02:01:33.677Z,1007.19
2022-08-27T02:02:33.759Z,1007.19
2022-08-27T02:03:33.752Z,1007.18
2022-08-27T02:04:33.789Z,1007.16
2022-08-27T02:05:39.378Z,1007.19
2022-08-27T02:06:33.865Z,1007.19
2022-08-27T02:07:33.906Z,1007.18
2022-08-27T02:08:33.941Z,1007.22
2022-08-27T02:09:33.981Z,1007.28
2022-08-27T02:10:34.016Z,1007.24
2022-08-27T02:11:34.057Z,1007.27
2022-08-27T02:12:34.093Z,1007.28
2022-08-27T02:13:34.135Z,1007.27
2022-08-27T02:14:34.169Z,1007.29
2022-08-27T02:15:34.211Z,1007.26
2022-08-27T02:16:34.280Z,1007.24
2022-08-27T02:17:34.286Z,1007.26
2022-08-27T02:18:34.322Z,1007.21
2022-08-27T02:19:34.361Z,1007.25
2022-08-27T02:20:34.398Z,1007.21
2022-08-27T02:21:34.436Z,1007.20
2022-08-27T02:22:34.477Z,1007.21
2022-08-27T02:23:34.516Z,1007.20
2022-08-27T02:24:34.553Z,1007.20
2022-08-27T02:25:34.592Z,1007.13
2022-08-27T02:26:34.627Z,1007.17
2022-08-27T02:27:34.669Z,1007.18
2022-08-27T02:28:34.709Z,1007.19
2022-08-27T02:29:34.740Z,1007.18
2022-08-27T02:30:34.779Z,1007.15
2022-08-27T02:31:34.896Z,1007.12
2022-08-27T02:32:34.855Z,1007.14
2022-08-27T02:33:34.893Z,1007.15
2022-08-27T02:34:34.930Z,1007.11
2022-08-27T02:35:34.969Z,1007.15
2022-08-27T02:36:35.008Z,1007.18
2022-08-27T02:37:35.051Z,1007.17
2022-08-27T02:38:35.099Z,1007.20
2022-08-27T02:39:35.123Z,1007.25
2022-08-27T02:40:35.204Z,1007.25
2022-08-27T02:41:35.197Z,1007.28
2022-08-27T02:42:35.235Z,1007.24
2022-08-27T02:43:35.275Z,1007.22
2022-08-27T02:44:35.311Z,1007.21
2022-08-27T02:45:35.637Z,1007.21
2022-08-27T02:46:35.472Z,1007.17
2022-08-27T02:47:35.427Z,1007.23
2022-08-27T02:48:35.462Z,1007.19
2022-08-27T02:49:35.505Z,1007.17
2022-08-27T02:50:35.542Z,1007.18
2022-08-27T02:51:35.582Z,1007.22
2022-08-27T02:52:35.625Z,1007.18
2022-08-27T02:53:35.671Z,1007.18
2022-08-27T02:54:35.693Z,1007.17
2022-08-27T02:55:35.731Z,1007.20
2022-08-27T02:56:35.768Z,1007.23
2022-08-27T02:57:36.665Z,1007.24
2022-08-27T02:58:35.845Z,1007.20
2022-08-27T02:59:35.884Z,1007.17
2022-08-27T03:00:35.921Z,1007.24
2022-08-27T03:01:36.010Z,1007.22
2022-08-27T03:02:36.159Z,1007.18
2022-08-27T03:03:36.039Z,1007.16
2022-08-27T03:04:36.071Z,1007.14
2022-08-27T03:05:36.111Z,1007.18
2022-08-27T03:06:36.150Z,1007.20
2022-08-27T03:07:36.187Z,1007.18
2022-08-27T03:08:53.065Z,1007.21
2022-08-27T03:09:36.262Z,1007.20
2022-08-27T03:10:36.300Z,1007.24
2022-08-27T03:11:36.343Z,1007.25
2022-08-27T03:12:36.416Z,1007.27
2022-08-27T03:13:36.417Z,1007.30
2022-08-27T03:14:36.453Z,1007.30
2022-08-27T03:15:36.494Z,1007.35
2022-08-27T03:16:36.529Z,1007.37
2022-08-27T03:17:36.568Z,1007.34
2022-08-27T03:18:36.606Z,1007.37
2022-08-27T03:19:36.645Z,1007.39
2022-08-27T03:20:36.681Z,1007.39
2022-08-27T03:21:36.720Z,1007.41
2022-08-27T03:22:36.758Z,1007.36
2022-08-27T03:23:36.799Z,1007.38
2022-08-27T03:24:36.842Z,1007.40
2022-08-27T03:25:36.871Z,1007.36
2022-08-27T03:26:36.909Z,1007.39
2022-08-27T03:27:36.949Z,1007.37
2022-08-27T03:28:36.984Z,1007.37
2022-08-27T03:29:37.024Z,1007.38
2022-08-27T03:30:37.063Z,1007.35
2022-08-27T03:31:37.127Z,1007.33
2022-08-27T03:32:37.138Z,1007.31
2022-08-27T03:33:37.175Z,1007.31
2022-08-27T03:34:37.218Z,1007.30
2022-08-27T03:35:37.253Z,1007.28
2022-08-27T03:36:37.293Z,1007.27
2022-08-27T03:37:37.327Z,1007.27
2022-08-27T03:38:37.367Z,1007.28
2022-08-27T03:39:37.404Z,1007.27
2022-08-27T03:40:37.465Z,1007.26
2022-08-27T03:41:45.592Z,1007.30
2022-08-27T03:42:37.518Z,1007.27
2022-08-27T03:43:37.556Z,1007.22
2022-08-27T03:44:37.595Z,1007.24
2022-08-27T03:46:00.243Z,1007.23
2022-08-27T03:46:37.739Z,1007.21
2022-08-27T03:47:37.723Z,1007.17
2022-08-27T03:48:37.747Z,1007.19
2022-08-27T03:49:37.784Z,1007.19
2022-08-27T03:50:37.824Z,1007.18
2022-08-27T03:51:37.861Z,1007.15
2022-08-27T03:52:37.899Z,1007.16
2022-08-27T03:53:37.940Z,1007.16
2022-08-27T03:54:37.976Z,1007.13
2022-08-27T03:55:38.016Z,1007.15
2022-08-27T03:56:38.051Z,1007.13
2022-08-27T03:57:38.089Z,1007.07
2022-08-27T03:58:38.127Z,1007.11
2022-08-27T03:59:38.167Z,1007.09
2022-08-27T04:00:38.202Z,1007.07
2022-08-27T04:01:38.268Z,1007.05
2022-08-27T04:02:38.297Z,1007.03
2022-08-27T04:03:38.318Z,1007.04
2022-08-27T04:04:38.356Z,1007.02
2022-08-27T04:05:38.395Z,1007.04
2022-08-27T04:06:38.434Z,1007.01
2022-08-27T04:07:38.470Z,1007.01
2022-08-27T04:08:38.507Z,1007.01
2022-08-27T04:09:38.545Z,1006.98
2022-08-27T04:10:38.584Z,1007.01
2022-08-27T04:11:38.620Z,1007.03
2022-08-27T04:12:38.660Z,1007.03
2022-08-27T04:13:38.697Z,1007.03
2022-08-27T04:14:38.737Z,1007.02
2022-08-27T04:15:40.662Z,1007.06
2022-08-27T04:16:38.812Z,1007.09
2022-08-27T04:17:38.850Z,1007.08
2022-08-27T04:18:38.894Z,1007.06
2022-08-27T04:19:38.926Z,1007.09
2022-08-27T04:20:38.966Z,1007.12
2022-08-27T04:21:39.000Z,1007.11
2022-08-27T04:22:39.041Z,1007.17
2022-08-27T04:23:39.077Z,1007.17
2022-08-27T04:24:39.116Z,1007.16
2022-08-27T04:25:39.154Z,1007.12
2022-08-27T04:26:39.194Z,1007.17
2022-08-27T04:27:39.231Z,1007.16
2022-08-27T04:28:39.281Z,1007.19
2022-08-27T04:29:39.764Z,1007.21
2022-08-27T04:30:39.345Z,1007.21
2022-08-27T04:31:39.456Z,1007.21
2022-08-27T04:32:39.420Z,1007.24
2022-08-27T04:33:39.460Z,1007.23
2022-08-27T04:34:39.503Z,1007.23
2022-08-27T04:35:39.533Z,1007.25
2022-08-27T04:36:39.574Z,1007.28
2022-08-27T04:37:39.610Z,1007.29
2022-08-27T04:38:39.654Z,1007.27
2022-08-27T04:39:39.686Z,1007.31
2022-08-27T04:40:39.724Z,1007.34
2022-08-27T04:41:39.762Z,1007.30
2022-08-27T04:42:39.801Z,1007.32
2022-08-27T04:43:39.839Z,1007.31
2022-08-27T04:44:39.882Z,1007.34
2022-08-27T04:45:39.915Z,1007.29
2022-08-27T04:46:40.035Z,1007.29
2022-08-27T04:47:39.991Z,1007.32
2022-08-27T04:48:40.035Z,1007.30
2022-08-27T04:49:40.065Z,1007.29
2022-08-27T04:50:40.105Z,1007.28
2022-08-27T04:51:40.365Z,1007.29
2022-08-27T04:52:41.166Z,1007.24
2022-08-27T04:53:40.217Z,1007.28
2022-08-27T04:54:40.257Z,1007.30
2022-08-27T04:55:40.295Z,1007.27
2022-08-27T04:56:40.332Z,1007.29
2022-08-27T04:57:40.371Z,1007.28
2022-08-27T04:58:40.412Z,1007.35
2022-08-27T04:59:40.447Z,1007.33
2022-08-27T05:00:40.486Z,1007.35
2022-08-27T05:01:40.580Z,1007.31
2022-08-27T05:02:40.563Z,1007.31
2022-08-27T05:03:40.599Z,1007.30
2022-08-27T05:04:40.638Z,1007.30
2022-08-27T05:05:42.691Z,1007.32
2022-08-27T05:06:40.713Z,1007.31
2022-08-27T05:07:40.755Z,1007.33
2022-08-27T05:08:40.790Z,1007.33
2022-08-27T05:09:40.826Z,1007.31
2022-08-27T05:10:40.867Z,1007.34
2022-08-27T05:11:40.905Z,1007.32
2022-08-27T05:12:40.941Z,1007.36
2022-08-27T05:13:40.984Z,1007.32
2022-08-27T05:14:41.018Z,1007.36
2022-08-27T05:15:41.113Z,1007.32
2022-08-27T05:16:41.097Z,1007.34
2022-08-27T05:17:41.134Z,1007.35
2022-08-27T05:18:42.279Z,1007.33
2022-08-27T05:19:41.206Z,1007.36
2022-08-27T05:20:41.245Z,1007.36
2022-08-27T05:21:41.286Z,1007.39
2022-08-27T05:22:41.325Z,1007.34
2022-08-27T05:23:41.360Z,1007.35
2022-08-27T05:24:41.398Z,1007.32
2022-08-27T05:25:41.434Z,1007.36
2022-08-27T05:26:48.695Z,1007.30
2022-08-27T05:28:45.545Z,1007.31
2022-08-27T05:29:45.566Z,1007.30
2022-08-27T05:31:49.626Z,1007.28
2022-08-27T05:32:49.659Z,1007.28
2022-08-27T05:34:53.739Z,1007.26
2022-08-27T05:35:53.760Z,1007.26
2022-08-27T05:37:57.827Z,1007.29
2022-08-27T05:38:57.864Z,1007.31
2022-08-27T05:41:01.923Z,1007.34
2022-08-27T05:42:01.951Z,1007.32
2022-08-27T05:44:24.077Z,1007.30
2022-08-27T05:45:06.040Z,1007.29
2022-08-27T05:47:10.186Z,1007.30
2022-08-27T05:48:10.250Z,1007.29
2022-08-27T05:50:14.211Z,1007.31
2022-08-27T05:51:14.243Z,1007.31
2022-08-27T05:53:18.320Z,1007.31
2022-08-27T05:54:18.351Z,1007.32
2022-08-27T05:56:22.438Z,1007.32
2022-08-27T05:57:22.468Z,1007.34
2022-08-27T05:59:26.577Z,1007.33
2022-08-27T06:00:26.567Z,1007.37
2022-08-27T06:02:19.803Z,1007.37
2022-08-27T06:03:19.784Z,1007.41
2022-08-27T06:05:12.847Z,1007.45
2022-08-27T06:06:12.799Z,1007.42
2022-08-27T06:08:16.872Z,1007.42
2022-08-27T06:09:16.902Z,1007.37
2022-08-27T06:11:20.966Z,1007.41
2022-08-27T06:12:28.230Z,1007.41
2022-08-27T06:14:25.105Z,1007.43
2022-08-27T06:15:25.104Z,1007.46
2022-08-27T06:17:29.169Z,1007.47
2022-08-27T06:18:29.202Z,1007.47
2022-08-27T06:20:33.269Z,1007.51
2022-08-27T06:21:33.298Z,1007.48
2022-08-27T06:23:37.410Z,1007.50
2022-08-27T06:24:37.408Z,1007.48
2022-08-27T06:26:41.474Z,1007.50
2022-08-27T06:27:41.503Z,1007.54
2022-08-27T06:29:34.708Z,1007.47
2022-08-27T06:30:34.711Z,1007.49
2022-08-27T06:32:27.893Z,1007.47
2022-08-27T06:33:27.925Z,1007.47
2022-08-27T06:35:20.928Z,1007.48
2022-08-27T06:36:20.957Z,1007.50
2022-08-27T06:38:25.039Z,1007.54
2022-08-27T06:39:25.070Z,1007.57
2022-08-27T06:41:29.141Z,1007.56
2022-08-27T06:42:29.172Z,1007.55
2022-08-27T06:44:22.347Z,1007.57
2022-08-27T06:45:22.378Z,1007.57
2022-08-27T06:47:15.593Z,1007.61
2022-08-27T06:48:15.597Z,1007.65
2022-08-27T06:50:22.277Z,1007.64
2022-08-27T06:51:19.714Z,1007.66
2022-08-27T06:53:12.896Z,1007.67
2022-08-27T06:54:12.925Z,1007.68
2022-08-27T06:56:17.015Z,1007.67
2022-08-27T06:57:17.037Z,1007.70
2022-08-27T06:59:12.018Z,1007.71
2022-08-27T07:00:10.082Z,1007.73
2022-08-27T07:02:14.192Z,1007.75
2022-08-27T07:03:14.190Z,1007.76
2022-08-27T07:05:07.241Z,1007.80
2022-08-27T07:06:07.266Z,1007.77
2022-08-27T07:08:00.448Z,1007.81
2022-08-27T07:09:00.477Z,1007.82
2022-08-27T07:11:04.555Z,1007.84
2022-08-27T07:12:04.586Z,1007.86
2022-08-27T07:14:08.681Z,1007.89
2022-08-27T07:15:08.711Z,1007.87
2022-08-27T07:17:16.366Z,1007.89
2022-08-27T07:18:12.928Z,1007.92
2022-08-27T07:20:16.866Z,1007.92
2022-08-27T07:21:16.898Z,1007.91
2022-08-27T07:23:21.002Z,1007.88
2022-08-27T07:24:21.036Z,1007.90
2022-08-27T07:26:14.184Z,1007.90
2022-08-27T07:27:14.210Z,1007.92
2022-08-27T07:28:14.247Z,1007.89
2022-08-27T07:29:14.282Z,1007.90
2022-08-27T07:30:14.323Z,1007.89
2022-08-27T07:31:14.392Z,1007.89
2022-08-27T07:32:14.399Z,1007.89
2022-08-27T07:33:14.436Z,1007.93
2022-08-27T07:34:14.473Z,1007.90
2022-08-27T07:35:14.515Z,1007.92
2022-08-27T07:36:14.551Z,1007.91
2022-08-27T07:37:14.592Z,1007.94
2022-08-27T07:38:14.628Z,1007.92
2022-08-27T07:39:14.666Z,1007.91
2022-08-27T07:40:14.747Z,1007.93
2022-08-27T07:41:14.743Z,1007.93
2022-08-27T07:42:14.782Z,1007.95
2022-08-27T07:43:14.819Z,1007.94
2022-08-27T07:44:14.857Z,1007.94
2022-08-27T07:45:14.896Z,1007.93
2022-08-27T07:46:14.996Z,1007.92
2022-08-27T07:47:14.972Z,1007.90
2022-08-27T07:48:15.009Z,1007.89
2022-08-27T07:49:15.047Z,1007.92
2022-08-27T07:50:15.087Z,1007.90
2022-08-27T07:51:15.127Z,1007.92
2022-08-27T07:52:15.164Z,1007.90
2022-08-27T07:53:15.200Z,1007.91
2022-08-27T07:54:15.237Z,1007.95
2022-08-27T07:55:15.277Z,1007.92
2022-08-27T07:56:15.317Z,1007.90
2022-08-27T07:57:15.355Z,1007.91
2022-08-27T07:58:18.565Z,1007.88
2022-08-27T07:59:15.434Z,1007.84
2022-08-27T08:00:15.504Z,1007.85
2022-08-27T08:01:15.553Z,1007.82
2022-08-27T08:02:15.631Z,1007.79
2022-08-27T08:03:15.582Z,1007.79
2022-08-27T08:04:19.985Z,1007.81
2022-08-27T08:05:15.660Z,1007.77
2022-08-27T08:06:15.699Z,1007.77
2022-08-27T08:07:15.734Z,1007.79
2022-08-27T08:08:15.773Z,1007.80
2022-08-27T08:09:15.810Z,1007.78
2022-08-27T08:10:15.850Z,1007.84
2022-08-27T08:11:15.888Z,1007.78
2022-08-27T08:12:15.929Z,1007.84
2022-08-27T08:13:15.962Z,1007.83
2022-08-27T08:14:16.002Z,1007.88
2022-08-27T08:15:16.041Z,1007.87
2022-08-27T08:16:16.078Z,1007.88
2022-08-27T08:17:16.176Z,1007.86
2022-08-27T08:18:16.155Z,1007.91
2022-08-27T08:19:16.194Z,1007.92
2022-08-27T08:20:24.135Z,1007.94
2022-08-27T08:21:16.267Z,1007.96
2022-08-27T08:22:16.308Z,1007.95
2022-08-27T08:23:16.355Z,1007.97
2022-08-27T08:24:16.387Z,1007.99
2022-08-27T08:25:16.420Z,1008.02
2022-08-27T08:26:16.460Z,1008.05
2022-08-27T08:27:16.497Z,1008.06
2022-08-27T08:28:16.545Z,1008.03
2022-08-27T08:29:18.022Z,1008.04
2022-08-27T08:30:16.614Z,1007.97
2022-08-27T08:31:16.702Z,1007.98
2022-08-27T08:32:16.693Z,1008.00
2022-08-27T08:33:16.727Z,1007.96
2022-08-27T08:34:16.766Z,1007.96
2022-08-27T08:35:16.805Z,1007.95
2022-08-27T08:36:16.843Z,1007.94
2022-08-27T08:37:16.881Z,1007.93
2022-08-27T08:38:16.919Z,1007.96
2022-08-27T08:39:16.958Z,1007.93
2022-08-27T08:40:17.037Z,1007.95
2022-08-27T08:41:17.034Z,1007.91
2022-08-27T08:42:17.075Z,1007.92
2022-08-27T08:43:17.119Z,1007.90
2022-08-27T08:44:17.149Z,1007.85
2022-08-27T08:45:17.187Z,1007.83
2022-08-27T08:46:17.341Z,1007.86
2022-08-27T08:47:17.262Z,1007.81
2022-08-27T08:48:17.304Z,1007.75
2022-08-27T08:49:17.353Z,1007.70
2022-08-27T08:50:19.816Z,1007.68
2022-08-27T08:51:17.417Z,1007.68
2022-08-27T08:52:26.465Z,1007.66
2022-08-27T08:53:17.493Z,1007.68
2022-08-27T08:54:17.532Z,1007.64
2022-08-27T08:55:17.569Z,1007.67
2022-08-27T08:56:17.610Z,1007.65
2022-08-27T08:57:18.671Z,1007.63
2022-08-27T08:58:17.684Z,1007.61
2022-08-27T08:59:17.724Z,1007.64
2022-08-27T09:00:17.804Z,1007.62
2022-08-27T09:01:17.863Z,1007.63
2022-08-27T09:02:17.837Z,1007.65
2022-08-27T09:03:17.875Z,1007.67
2022-08-27T09:04:17.921Z,1007.67
2022-08-27T09:05:17.957Z,1007.69
2022-08-27T09:06:17.992Z,1007.73
2022-08-27T09:07:18.029Z,1007.70
2022-08-27T09:08:37.686Z,1007.66
2022-08-27T09:09:18.107Z,1007.70
2022-08-27T09:10:18.159Z,1007.75
2022-08-27T09:11:18.185Z,1007.73
2022-08-27T09:12:18.221Z,1007.71
2022-08-27T09:13:18.261Z,1007.72
2022-08-27T09:14:18.300Z,1007.72
2022-08-27T09:15:18.337Z,1007.73
2022-08-27T09:16:18.485Z,1007.68
2022-08-27T09:17:18.413Z,1007.65
2022-08-27T09:18:18.451Z,1007.67
2022-08-27T09:19:24.033Z,1007.61
2022-08-27T09:20:18.531Z,1007.55
2022-08-27T09:21:18.568Z,1007.48
2022-08-27T09:22:18.607Z,1007.50
2022-08-27T09:23:18.647Z,1007.46
2022-08-27T09:24:18.689Z,1007.49
2022-08-27T09:25:20.960Z,1007.49
2022-08-27T09:26:18.764Z,1007.49
2022-08-27T09:27:18.796Z,1007.49
2022-08-27T09:28:18.836Z,1007.55
2022-08-27T09:29:18.877Z,1007.50
2022-08-27T09:30:18.916Z,1007.53
2022-08-27T09:31:19.041Z,1007.48
2022-08-27T09:32:18.991Z,1007.53
2022-08-27T09:33:19.027Z,1007.50
2022-08-27T09:34:19.111Z,1007.46
2022-08-27T09:35:19.108Z,1007.46
2022-08-27T09:36:23.449Z,1007.43
2022-08-27T09:37:19.188Z,1007.40
2022-08-27T09:38:19.221Z,1007.42
2022-08-27T09:39:19.258Z,1007.40
2022-08-27T09:40:22.959Z,1007.40
2022-08-27T09:41:19.334Z,1007.44
2022-08-27T09:42:19.373Z,1007.43
2022-08-27T09:43:19.412Z,1007.47
2022-08-27T09:44:19.480Z,1007.51
2022-08-27T09:45:19.488Z,1007.53
2022-08-27T09:46:19.593Z,1007.55
2022-08-27T09:47:19.565Z,1007.60
2022-08-27T09:48:19.606Z,1007.64
2022-08-27T09:49:19.660Z,1007.63
2022-08-27T09:50:19.683Z,1007.68
2022-08-27T09:51:21.924Z,1007.71
2022-08-27T09:52:19.759Z,1007.70
2022-08-27T09:53:19.796Z,1007.75
2022-08-27T09:54:19.836Z,1007.75
2022-08-27T09:55:19.873Z,1007.77
2022-08-27T09:56:19.912Z,1007.77
2022-08-27T09:57:19.949Z,1007.82
2022-08-27T09:58:19.990Z,1007.82
2022-08-27T09:59:20.028Z,1007.86
2022-08-27T10:00:20.067Z,1007.87
2022-08-27T10:01:20.188Z,1007.88
2022-08-27T10:02:20.143Z,1007.89
2022-08-27T10:03:20.186Z,1007.90
2022-08-27T10:04:20.286Z,1007.92
2022-08-27T10:05:20.260Z,1007.94
2022-08-27T10:06:20.298Z,1007.92
2022-08-27T10:07:20.339Z,1007.98
2022-08-27T10:08:20.695Z,1007.98
2022-08-27T10:09:20.423Z,1007.98
2022-08-27T10:10:20.450Z,1007.98
2022-08-27T10:11:20.492Z,1008.00
2022-08-27T10:12:20.531Z,1008.01
2022-08-27T10:13:20.568Z,1008.00
2022-08-27T10:14:20.609Z,1008.01
2022-08-27T10:15:20.647Z,1008.03
2022-08-27T10:16:20.724Z,1008.04
2022-08-27T10:17:20.725Z,1008.03
2022-08-27T10:18:20.760Z,1008.05
2022-08-27T10:19:20.802Z,1008.04
2022-08-27T10:20:29.590Z,1008.03
2022-08-27T10:21:20.878Z,1008.07
2022-08-27T10:22:20.916Z,1008.06
2022-08-27T10:23:20.959Z,1008.04
2022-08-27T10:24:20.995Z,1008.04
2022-08-27T10:25:21.034Z,1008.09
2022-08-27T10:26:21.073Z,1008.08
2022-08-27T10:27:21.113Z,1008.05
2022-08-27T10:28:21.150Z,1008.09
2022-08-27T10:29:21.192Z,1008.05
2022-08-27T10:30:21.228Z,1008.07
2022-08-27T10:31:21.317Z,1008.04
2022-08-27T10:32:21.303Z,1008.09
2022-08-27T10:33:23.577Z,1008.08
2022-08-27T10:34:21.392Z,1008.08
2022-08-27T10:35:21.421Z,1008.07
2022-08-27T10:36:21.459Z,1008.11
2022-08-27T10:37:21.496Z,1008.08
2022-08-27T10:38:21.536Z,1008.10
2022-08-27T10:39:22.637Z,1008.12
2022-08-27T10:40:21.688Z,1008.12
2022-08-27T10:41:21.652Z,1008.14
2022-08-27T10:42:21.691Z,1008.12
2022-08-27T10:43:21.729Z,1008.13
2022-08-27T10:44:21.768Z,1008.12
2022-08-27T10:45:30.643Z,1008.13
2022-08-27T10:46:25.017Z,1008.14
2022-08-27T10:47:21.886Z,1008.14
2022-08-27T10:48:21.924Z,1008.15
2022-08-27T10:49:21.964Z,1008.11
2022-08-27T10:50:22.000Z,1008.13
2022-08-27T10:51:22.041Z,1008.15
2022-08-27T10:52:22.078Z,1008.14
2022-08-27T10:53:22.118Z,1008.19
2022-08-27T10:54:22.159Z,1008.18
2022-08-27T10:55:22.198Z,1008.19
2022-08-27T10:56:22.235Z,1008.19
2022-08-27T10:57:40.019Z,1008.18
2022-08-27T10:58:22.314Z,1008.20
2022-08-27T10:59:22.353Z,1008.20
2022-08-27T11:00:22.390Z,1008.18
2022-08-27T11:01:22.473Z,1008.18
2022-08-27T11:02:22.498Z,1008.17
2022-08-27T11:03:22.507Z,1008.18
2022-08-27T11:04:22.545Z,1008.17
2022-08-27T11:05:22.583Z,1008.16
2022-08-27T11:06:22.622Z,1008.19
2022-08-27T11:07:22.665Z,1008.18
2022-08-27T11:08:22.700Z,1008.23
2022-08-27T11:09:22.741Z,1008.23
2022-08-27T11:10:22.779Z,1008.26
2022-08-27T11:12:03.332Z,1008.27
2022-08-27T11:12:22.854Z,1008.25
2022-08-27T11:13:22.896Z,1008.25
2022-08-27T11:14:22.935Z,1008.23
2022-08-27T11:15:22.974Z,1008.24
2022-08-27T11:16:23.045Z,1008.24
2022-08-27T11:17:23.052Z,1008.25
2022-08-27T11:18:23.092Z,1008.26
2022-08-27T11:19:23.129Z,1008.29
2022-08-27T11:20:23.168Z,1008.23
2022-08-27T11:21:23.208Z,1008.26
2022-08-27T11:22:26.414Z,1008.24
2022-08-27T11:23:23.286Z,1008.25
2022-08-27T11:24:23.324Z,1008.21
2022-08-27T11:25:23.363Z,1008.27
2022-08-27T11:26:23.402Z,1008.27
2022-08-27T11:27:23.441Z,1008.27
2022-08-27T11:28:30.207Z,1008.23
2022-08-27T11:30:41.032Z,1008.22
2022-08-27T11:31:41.101Z,1008.20
2022-08-27T11:33:34.272Z,1008.23
2022-08-27T11:34:34.274Z,1008.18
2022-08-27T11:36:27.489Z,1008.22
2022-08-27T11:37:27.483Z,1008.22
2022-08-27T11:39:31.554Z,1008.22
2022-08-27T11:40:31.641Z,1008.21
2022-08-27T11:42:35.695Z,1008.23
2022-08-27T11:43:35.696Z,1008.22
2022-08-27T11:45:28.689Z,1008.22
2022-08-27T11:46:28.741Z,1008.22
2022-08-27T11:48:32.775Z,1008.22
2022-08-27T11:49:32.808Z,1008.22
2022-08-27T11:51:36.893Z,1008.23
2022-08-27T11:52:36.926Z,1008.19
2022-08-27T11:54:40.987Z,1008.26
2022-08-27T11:55:41.022Z,1008.22
2022-08-27T11:57:45.085Z,1008.20
2022-08-27T11:58:52.753Z,1008.19
2022-08-27T12:00:49.192Z,1008.21
2022-08-27T12:01:49.219Z,1008.23
2022-08-27T12:03:53.423Z,1008.16
2022-08-27T12:04:53.320Z,1008.20
2022-08-27T12:06:57.376Z,1008.18
2022-08-27T12:07:57.413Z,1008.19
2022-08-27T12:09:50.586Z,1008.22
2022-08-27T12:10:50.620Z,1008.18
2022-08-27T12:12:43.810Z,1008.21
2022-08-27T12:13:43.839Z,1008.19
2022-08-27T12:15:36.860Z,1008.20
2022-08-27T12:16:36.945Z,1008.18
2022-08-27T12:18:30.071Z,1008.22
2022-08-27T12:19:30.070Z,1008.21
2022-08-27T12:21:34.154Z,1008.18
2022-08-27T12:22:39.045Z,1008.19
2022-08-27T12:24:38.260Z,1008.13
2022-08-27T12:25:38.296Z,1008.12
2022-08-27T12:27:42.406Z,1008.06
2022-08-27T12:28:42.419Z,1008.07
2022-08-27T12:30:46.472Z,1008.03
2022-08-27T12:31:46.568Z,1008.04
2022-08-27T12:33:50.633Z,1008.10
2022-08-27T12:34:50.627Z,1008.09
2022-08-27T12:36:54.709Z,1008.07
2022-08-27T12:37:57.027Z,1008.05
2022-08-27T12:39:47.985Z,1008.03
2022-08-27T12:40:47.958Z,1008.05
2022-08-27T12:41:47.994Z,1008.02
2022-08-27T12:42:48.030Z,1008.04
2022-08-27T12:43:48.071Z,1008.08
2022-08-27T12:44:48.110Z,1008.09
2022-08-27T12:45:48.155Z,1008.06
2022-08-27T12:46:48.246Z,1008.07
2022-08-27T12:47:50.924Z,1008.07
2022-08-27T12:48:48.266Z,1008.08
2022-08-27T12:49:50.602Z,1008.06
2022-08-27T12:50:48.343Z,1008.05
2022-08-27T12:51:48.390Z,1008.05
2022-08-27T12:52:48.424Z,1008.06
2022-08-27T12:53:48.462Z,1008.04
2022-08-27T12:54:48.500Z,1008.05
2022-08-27T12:55:48.553Z,1008.04
2022-08-27T12:56:48.580Z,1008.03
2022-08-27T12:57:48.624Z,1008.02
2022-08-27T12:58:48.662Z,1007.99
2022-08-27T12:59:48.699Z,1007.99
2022-08-27T13:00:48.822Z,1007.97
2022-08-27T13:01:48.873Z,1007.94
2022-08-27T13:02:48.818Z,1007.97
2022-08-27T13:03:48.860Z,1007.96
2022-08-27T13:04:48.903Z,1007.98
2022-08-27T13:05:48.937Z,1007.96
2022-08-27T13:06:48.975Z,1008.01
2022-08-27T13:07:49.018Z,1007.99
2022-08-27T13:08:49.308Z,1007.99
2022-08-27T13:09:49.096Z,1007.97
2022-08-27T13:10:49.133Z,1007.94